Whitetail, Montana
Current Conditions -  °F | °C
As of 2:53 AM on Wednesday 26 Nov 2014 (Local Time) from KOLF Reporting Station
Overcast Overcast  
Wind Chill: 16°   Ceiling: 4200
Heat Index: 22°   Visibility: 10mi
Dew Point: 16°   Wind: 5mph
Humidity: 78%   Direction: 30°NNE
Pressure: 30.25"   Gusts: NA
Location:  48.9°N, 105.16°W
Report Text: KOLF 260953Z AUTO 03004KT 10SM FEW033 BKN042 OVC050 M06/M09 A3025 RMK AO2 SLP273 T10561089
Loading
Personal Weather Stations






























Interactive Weather Map New forecast layout! Learn more

10-Day Weather Forecast

Advertisements
Track Severe Weather on mobile